WMT515N LRCL-LIRF
Flight info
| Callsign | WMT515N |
|---|---|
| Flight time | 1h 37m |
| Altitude | 36000 |
| Route | ELROM DCT DEGET DCT MAVIR DCT PIDON DCT VEBAL DCT NIVES DCT IBENI/N0448F350 DCT ERDON DCT GOTMO DCT RITEB |
| Aircraft | A321/M-SDE1E2E3FGIJ1J4RWXY/LB1 |
Departure
| Time | 2026-05-05 18:03 |
|---|---|
| Airport | Avram Iancu Cluj International Airport (LRCL) |
Arrival
| Time | 2026-05-05 19:41 |
|---|---|
| Airport | Rome–Fiumicino Leonardo da Vinci International Airport (LIRF) |
| Time | Latitude | Longitude | Altitude | Speed | Heading |
|---|---|---|---|---|---|
| 2026-05-05 17:43 | 46.78324 | 23.68781 | 1030 ft | 0 kts | 174° |
| 2026-05-05 17:50 | 46.78337 | 23.68779 | 1029 ft | 3 kts | 174° |
| 2026-05-05 17:51 | 46.78355 | 23.68777 | 1030 ft | 3 kts | 159° |
| 2026-05-05 17:51 | 46.78374 | 23.68773 | 1027 ft | 3 kts | 213° |
| 2026-05-05 17:51 | 46.78384 | 23.68789 | 1027 ft | 0 kts | 249° |
| 2026-05-05 17:55 | 46.78383 | 23.68787 | 1030 ft | 1 kts | 249° |
| 2026-05-05 17:55 | 46.78378 | 23.68767 | 1029 ft | 3 kts | 249° |
| 2026-05-05 17:55 | 46.78377 | 23.68761 | 1028 ft | 0 kts | 249° |
| 2026-05-05 17:57 | 46.78376 | 23.68760 | 1028 ft | 1 kts | 249° |
| 2026-05-05 17:58 | 46.78368 | 23.68727 | 1030 ft | 5 kts | 257° |
| 2026-05-05 17:58 | 46.78395 | 23.68676 | 1029 ft | 10 kts | 338° |
| 2026-05-05 17:58 | 46.78463 | 23.68646 | 1029 ft | 11 kts | 348° |
| 2026-05-05 17:58 | 46.78521 | 23.68684 | 1030 ft | 11 kts | 73° |
| 2026-05-05 17:59 | 46.78542 | 23.68798 | 1027 ft | 12 kts | 78° |
| 2026-05-05 17:59 | 46.78559 | 23.68931 | 1026 ft | 14 kts | 81° |
| 2026-05-05 17:59 | 46.78579 | 23.69079 | 1027 ft | 16 kts | 77° |
| 2026-05-05 17:59 | 46.78600 | 23.69233 | 1025 ft | 13 kts | 79° |
| 2026-05-05 18:00 | 46.78656 | 23.69282 | 1024 ft | 11 kts | 348° |
| 2026-05-05 18:00 | 46.78732 | 23.69245 | 1022 ft | 12 kts | 340° |
| 2026-05-05 18:00 | 46.78814 | 23.69202 | 1024 ft | 13 kts | 340° |
| 2026-05-05 18:00 | 46.78899 | 23.69192 | 1027 ft | 12 kts | 30° |
| 2026-05-05 18:01 | 46.78951 | 23.69291 | 1027 ft | 13 kts | 75° |
| 2026-05-05 18:01 | 46.78975 | 23.69424 | 1024 ft | 14 kts | 75° |
| 2026-05-05 18:01 | 46.78995 | 23.69553 | 1025 ft | 10 kts | 86° |
| 2026-05-05 18:01 | 46.79003 | 23.69609 | 1022 ft | 2 kts | 27° |
| 2026-05-05 18:02 | 46.79011 | 23.69593 | 1022 ft | 3 kts | 302° |
| 2026-05-05 18:02 | 46.79008 | 23.69583 | 1022 ft | 0 kts | 252° |
| 2026-05-05 18:02 | 46.79007 | 23.69579 | 1022 ft | 4 kts | 252° |
| 2026-05-05 18:02 | 46.78936 | 23.69260 | 1024 ft | 75 kts | 252° |
| 2026-05-05 18:03 | 46.78693 | 23.68173 | 1032 ft | 147 kts | 252° |
| 2026-05-05 18:03 | 46.78333 | 23.66557 | 1451 ft | 172 kts | 252° |
| 2026-05-05 18:03 | 46.77976 | 23.64918 | 2365 ft | 168 kts | 251° |
| 2026-05-05 18:03 | 46.77629 | 23.63344 | 2897 ft | 166 kts | 252° |
| 2026-05-05 18:04 | 46.77386 | 23.61577 | 3041 ft | 186 kts | 257° |
| 2026-05-05 18:04 | 46.77174 | 23.59667 | 3222 ft | 201 kts | 259° |
| 2026-05-05 18:04 | 46.76950 | 23.57561 | 3357 ft | 214 kts | 259° |
| 2026-05-05 18:04 | 46.76720 | 23.55385 | 3499 ft | 228 kts | 259° |
| 2026-05-05 18:05 | 46.76465 | 23.52986 | 3765 ft | 251 kts | 260° |
| 2026-05-05 18:05 | 46.76191 | 23.50410 | 4343 ft | 261 kts | 261° |
| 2026-05-05 18:05 | 46.75908 | 23.47782 | 5090 ft | 264 kts | 261° |
| 2026-05-05 18:05 | 46.75617 | 23.45129 | 5852 ft | 266 kts | 261° |
| 2026-05-05 18:06 | 46.75322 | 23.42447 | 6594 ft | 270 kts | 261° |
| 2026-05-05 18:06 | 46.75118 | 23.40610 | 7058 ft | 272 kts | 261° |
| 2026-05-05 18:06 | 46.74714 | 23.36975 | 7996 ft | 276 kts | 260° |
| 2026-05-05 18:06 | 46.74404 | 23.34186 | 8682 ft | 280 kts | 260° |
| 2026-05-05 18:07 | 46.74091 | 23.31375 | 9424 ft | 283 kts | 259° |
| 2026-05-05 18:07 | 46.73773 | 23.28532 | 10116 ft | 286 kts | 260° |
| 2026-05-05 18:07 | 46.73442 | 23.25574 | 10349 ft | 307 kts | 259° |
| 2026-05-05 18:07 | 46.73085 | 23.22389 | 10486 ft | 329 kts | 260° |
| 2026-05-05 18:08 | 46.72707 | 23.19025 | 10863 ft | 341 kts | 260° |
| 2026-05-05 18:08 | 46.72321 | 23.15595 | 11444 ft | 345 kts | 260° |
| 2026-05-05 18:08 | 46.71930 | 23.12126 | 12074 ft | 349 kts | 260° |
| 2026-05-05 18:08 | 46.71534 | 23.08615 | 12676 ft | 353 kts | 260° |
| 2026-05-05 18:09 | 46.71131 | 23.05064 | 13285 ft | 357 kts | 260° |
| 2026-05-05 18:09 | 46.70722 | 23.01475 | 13883 ft | 361 kts | 260° |
| 2026-05-05 18:09 | 46.70310 | 22.97852 | 14435 ft | 365 kts | 260° |
| 2026-05-05 18:09 | 46.69893 | 22.94191 | 15006 ft | 368 kts | 259° |
| 2026-05-05 18:10 | 46.69469 | 22.90496 | 15570 ft | 371 kts | 260° |
| 2026-05-05 18:10 | 46.69038 | 22.86772 | 16186 ft | 373 kts | 259° |
| 2026-05-05 18:10 | 46.68605 | 22.83035 | 16811 ft | 375 kts | 259° |
| 2026-05-05 18:10 | 46.68168 | 22.79270 | 17402 ft | 378 kts | 259° |
| 2026-05-05 18:11 | 46.67736 | 22.75530 | 17979 ft | 381 kts | 259° |
| 2026-05-05 18:11 | 46.67292 | 22.71711 | 18510 ft | 384 kts | 259° |
| 2026-05-05 18:11 | 46.66840 | 22.67862 | 19004 ft | 387 kts | 260° |
| 2026-05-05 18:11 | 46.66381 | 22.63987 | 19508 ft | 390 kts | 259° |
| 2026-05-05 18:12 | 46.65916 | 22.60092 | 20028 ft | 392 kts | 259° |
| 2026-05-05 18:12 | 46.65451 | 22.56173 | 20551 ft | 394 kts | 260° |
| 2026-05-05 18:12 | 46.64983 | 22.52226 | 21066 ft | 397 kts | 260° |
| 2026-05-05 18:12 | 46.64506 | 22.48202 | 21575 ft | 400 kts | 260° |
| 2026-05-05 18:13 | 46.64040 | 22.44260 | 22060 ft | 402 kts | 261° |
| 2026-05-05 18:13 | 46.63564 | 22.40243 | 22559 ft | 404 kts | 260° |
| 2026-05-05 18:13 | 46.63084 | 22.36214 | 23051 ft | 405 kts | 260° |
| 2026-05-05 18:13 | 46.62597 | 22.32162 | 23504 ft | 408 kts | 260° |
| 2026-05-05 18:14 | 46.62103 | 22.28085 | 23882 ft | 410 kts | 260° |
| 2026-05-05 18:14 | 46.61605 | 22.23989 | 24257 ft | 412 kts | 260° |
| 2026-05-05 18:14 | 46.61102 | 22.19872 | 24615 ft | 415 kts | 260° |
| 2026-05-05 18:14 | 46.60598 | 22.15735 | 24988 ft | 417 kts | 260° |
| 2026-05-05 18:15 | 46.60089 | 22.11578 | 25361 ft | 419 kts | 260° |
| 2026-05-05 18:15 | 46.59575 | 22.07403 | 25740 ft | 421 kts | 261° |
| 2026-05-05 18:15 | 46.59059 | 22.03209 | 26100 ft | 422 kts | 261° |
| 2026-05-05 18:15 | 46.58543 | 21.98996 | 26442 ft | 424 kts | 261° |
| 2026-05-05 18:16 | 46.58024 | 21.94760 | 26803 ft | 426 kts | 261° |
| 2026-05-05 18:16 | 46.57498 | 21.90512 | 27154 ft | 428 kts | 260° |
| 2026-05-05 18:16 | 46.56965 | 21.86240 | 27481 ft | 431 kts | 260° |
| 2026-05-05 18:16 | 46.56425 | 21.81951 | 27806 ft | 433 kts | 260° |
| 2026-05-05 18:17 | 46.55882 | 21.77641 | 28137 ft | 435 kts | 260° |
| 2026-05-05 18:17 | 46.55336 | 21.73312 | 28453 ft | 437 kts | 260° |
| 2026-05-05 18:17 | 46.54785 | 21.68962 | 28761 ft | 439 kts | 260° |
| 2026-05-05 18:17 | 46.54230 | 21.64590 | 29062 ft | 441 kts | 260° |
| 2026-05-05 18:18 | 46.53673 | 21.60194 | 29357 ft | 443 kts | 260° |
| 2026-05-05 18:18 | 46.53116 | 21.55785 | 29665 ft | 445 kts | 260° |
| 2026-05-05 18:18 | 46.52551 | 21.51350 | 29963 ft | 448 kts | 260° |
| 2026-05-05 18:18 | 46.51979 | 21.46896 | 30237 ft | 449 kts | 260° |
| 2026-05-05 18:19 | 46.51404 | 21.42430 | 30526 ft | 450 kts | 259° |
| 2026-05-05 18:19 | 46.50830 | 21.37981 | 30980 ft | 447 kts | 259° |
| 2026-05-05 18:19 | 46.50258 | 21.33564 | 31412 ft | 444 kts | 259° |
| 2026-05-05 18:19 | 46.49687 | 21.29172 | 31790 ft | 442 kts | 260° |
| 2026-05-05 18:20 | 46.49245 | 21.24765 | 32175 ft | 441 kts | 265° |
| 2026-05-05 18:20 | 46.49073 | 21.21831 | 32419 ft | 440 kts | 265° |
| 2026-05-05 18:20 | 46.48721 | 21.15930 | 32912 ft | 438 kts | 265° |
| 2026-05-05 18:20 | 46.48454 | 21.11528 | 33276 ft | 437 kts | 265° |
| 2026-05-05 18:21 | 46.48184 | 21.07143 | 33639 ft | 436 kts | 265° |
| 2026-05-05 18:21 | 46.47910 | 21.02767 | 33984 ft | 435 kts | 265° |
| 2026-05-05 18:21 | 46.47635 | 20.98402 | 34275 ft | 434 kts | 265° |
| 2026-05-05 18:21 | 46.47361 | 20.94046 | 34590 ft | 433 kts | 265° |
| 2026-05-05 18:22 | 46.47090 | 20.89708 | 34888 ft | 432 kts | 265° |
| 2026-05-05 18:22 | 46.46819 | 20.85374 | 35157 ft | 431 kts | 265° |
| 2026-05-05 18:22 | 46.46549 | 20.81043 | 35425 ft | 431 kts | 265° |
| 2026-05-05 18:22 | 46.46280 | 20.76715 | 35685 ft | 431 kts | 265° |
| 2026-05-05 18:23 | 46.46004 | 20.72385 | 35887 ft | 432 kts | 265° |
| 2026-05-05 18:23 | 46.45439 | 20.63736 | 35928 ft | 430 kts | 265° |
| 2026-05-05 18:24 | 46.44962 | 20.56560 | 35931 ft | 430 kts | 265° |
| 2026-05-05 18:24 | 46.44299 | 20.46538 | 35931 ft | 429 kts | 265° |
| 2026-05-05 18:25 | 46.43722 | 20.37943 | 35928 ft | 428 kts | 265° |
| 2026-05-05 18:25 | 46.43138 | 20.29350 | 35932 ft | 428 kts | 265° |
| 2026-05-05 18:26 | 46.42643 | 20.22146 | 35940 ft | 429 kts | 265° |
| 2026-05-05 18:26 | 46.42047 | 20.13541 | 35941 ft | 429 kts | 265° |
| 2026-05-05 18:27 | 46.41441 | 20.04937 | 35947 ft | 429 kts | 265° |
| 2026-05-05 18:27 | 46.40835 | 19.96389 | 35951 ft | 429 kts | 265° |
| 2026-05-05 18:28 | 46.39904 | 19.83491 | 35950 ft | 429 kts | 263° |
| 2026-05-05 18:28 | 46.38718 | 19.75013 | 35953 ft | 430 kts | 259° |
| 2026-05-05 18:29 | 46.37451 | 19.66557 | 35953 ft | 430 kts | 258° |
| 2026-05-05 18:29 | 46.36177 | 19.58107 | 35955 ft | 430 kts | 258° |
| 2026-05-05 18:30 | 46.34899 | 19.49659 | 35962 ft | 430 kts | 258° |
| 2026-05-05 18:30 | 46.33613 | 19.41219 | 35956 ft | 429 kts | 258° |
| 2026-05-05 18:31 | 46.32317 | 19.32789 | 35961 ft | 429 kts | 258° |
| 2026-05-05 18:31 | 46.31019 | 19.24376 | 35963 ft | 428 kts | 258° |
| 2026-05-05 18:32 | 46.29723 | 19.15969 | 35964 ft | 428 kts | 258° |
| 2026-05-05 18:32 | 46.28416 | 19.07572 | 35966 ft | 428 kts | 257° |
| 2026-05-05 18:33 | 46.27102 | 18.99185 | 35970 ft | 428 kts | 257° |
| 2026-05-05 18:33 | 46.25782 | 18.90809 | 35971 ft | 427 kts | 257° |
| 2026-05-05 18:34 | 46.24463 | 18.82432 | 35976 ft | 427 kts | 257° |
| 2026-05-05 18:34 | 46.23140 | 18.74068 | 35975 ft | 427 kts | 257° |
| 2026-05-05 18:35 | 46.21802 | 18.65717 | 35982 ft | 426 kts | 257° |
| 2026-05-05 18:35 | 46.20462 | 18.57377 | 35985 ft | 426 kts | 257° |
| 2026-05-05 18:36 | 46.19135 | 18.49101 | 35990 ft | 426 kts | 257° |
| 2026-05-05 18:36 | 46.17791 | 18.40778 | 35991 ft | 426 kts | 257° |
| 2026-05-05 18:37 | 46.16433 | 18.32461 | 35992 ft | 426 kts | 257° |
| 2026-05-05 18:37 | 46.15071 | 18.24148 | 35993 ft | 426 kts | 257° |
| 2026-05-05 18:38 | 46.13700 | 18.15840 | 35993 ft | 426 kts | 257° |
| 2026-05-05 18:38 | 46.12321 | 18.07544 | 35993 ft | 425 kts | 257° |
| 2026-05-05 18:39 | 46.10952 | 17.99254 | 35992 ft | 425 kts | 257° |
| 2026-05-05 18:39 | 46.09577 | 17.90980 | 35991 ft | 425 kts | 257° |
| 2026-05-05 18:40 | 46.08192 | 17.82714 | 35988 ft | 424 kts | 257° |
| 2026-05-05 18:40 | 46.06801 | 17.74453 | 35986 ft | 424 kts | 257° |
| 2026-05-05 18:41 | 46.05405 | 17.66201 | 35987 ft | 424 kts | 257° |
| 2026-05-05 18:41 | 46.04002 | 17.57965 | 35989 ft | 424 kts | 257° |
| 2026-05-05 18:42 | 46.02597 | 17.49733 | 35981 ft | 423 kts | 257° |
| 2026-05-05 18:42 | 46.01191 | 17.41527 | 35991 ft | 422 kts | 257° |
| 2026-05-05 18:43 | 45.99748 | 17.33359 | 35986 ft | 421 kts | 253° |
| 2026-05-05 18:43 | 45.97092 | 17.25860 | 35993 ft | 425 kts | 234° |
| 2026-05-05 18:44 | 45.93457 | 17.19158 | 36003 ft | 425 kts | 234° |
| 2026-05-05 18:44 | 45.89835 | 17.12460 | 35998 ft | 424 kts | 234° |
| 2026-05-05 18:45 | 45.86213 | 17.05780 | 35990 ft | 424 kts | 234° |
| 2026-05-05 18:45 | 45.82615 | 16.99171 | 35997 ft | 423 kts | 234° |
| 2026-05-05 18:46 | 45.78989 | 16.92540 | 35998 ft | 422 kts | 234° |
| 2026-05-05 18:46 | 45.75371 | 16.85919 | 35997 ft | 422 kts | 234° |
| 2026-05-05 18:47 | 45.71756 | 16.79308 | 35991 ft | 422 kts | 234° |
| 2026-05-05 18:47 | 45.68132 | 16.72711 | 35993 ft | 422 kts | 234° |
| 2026-05-05 18:48 | 45.64501 | 16.66121 | 35997 ft | 422 kts | 234° |
| 2026-05-05 18:48 | 45.60864 | 16.59544 | 36000 ft | 422 kts | 233° |
| 2026-05-05 18:49 | 45.57225 | 16.52967 | 36004 ft | 422 kts | 233° |
| 2026-05-05 18:49 | 45.53586 | 16.46392 | 36004 ft | 422 kts | 233° |
| 2026-05-05 18:50 | 45.49938 | 16.39830 | 36005 ft | 422 kts | 233° |
| 2026-05-05 18:50 | 45.46285 | 16.33280 | 36011 ft | 422 kts | 233° |
| 2026-05-05 18:51 | 45.42628 | 16.26729 | 36009 ft | 423 kts | 233° |
| 2026-05-05 18:51 | 45.38965 | 16.20187 | 36010 ft | 423 kts | 233° |
| 2026-05-05 18:52 | 45.35301 | 16.13655 | 36015 ft | 422 kts | 233° |
| 2026-05-05 18:52 | 45.31639 | 16.07144 | 36020 ft | 422 kts | 233° |
| 2026-05-05 18:53 | 45.27975 | 16.00645 | 36033 ft | 421 kts | 233° |
| 2026-05-05 18:53 | 45.24340 | 15.94220 | 36017 ft | 420 kts | 233° |
| 2026-05-05 18:54 | 45.20676 | 15.87784 | 36018 ft | 419 kts | 232° |
| 2026-05-05 18:54 | 45.16936 | 15.81436 | 36020 ft | 419 kts | 232° |
| 2026-05-05 18:55 | 45.13178 | 15.75125 | 36024 ft | 419 kts | 232° |
| 2026-05-05 18:55 | 45.09423 | 15.68817 | 36023 ft | 419 kts | 232° |
| 2026-05-05 18:56 | 45.05675 | 15.62496 | 36021 ft | 420 kts | 232° |
| 2026-05-05 18:56 | 45.01922 | 15.56171 | 36031 ft | 420 kts | 232° |
| 2026-05-05 18:57 | 44.98155 | 15.49857 | 36030 ft | 420 kts | 232° |
| 2026-05-05 18:57 | 44.94384 | 15.43546 | 36042 ft | 420 kts | 232° |
| 2026-05-05 18:58 | 44.90633 | 15.37267 | 36024 ft | 413 kts | 233° |
| 2026-05-05 18:58 | 44.86950 | 15.31136 | 36030 ft | 408 kts | 233° |
| 2026-05-05 18:59 | 44.83287 | 15.25041 | 36032 ft | 407 kts | 233° |
| 2026-05-05 18:59 | 44.79626 | 15.18956 | 36035 ft | 407 kts | 233° |
| 2026-05-05 19:00 | 44.75960 | 15.12884 | 36023 ft | 407 kts | 234° |
| 2026-05-05 19:00 | 44.72286 | 15.06818 | 36032 ft | 408 kts | 234° |
| 2026-05-05 19:01 | 44.68606 | 15.00748 | 36045 ft | 408 kts | 234° |
| 2026-05-05 19:01 | 44.64916 | 14.94680 | 36046 ft | 409 kts | 234° |
| 2026-05-05 19:02 | 44.61223 | 14.88616 | 36023 ft | 407 kts | 234° |
| 2026-05-05 19:02 | 44.59385 | 14.85605 | 35586 ft | 405 kts | 234° |
| 2026-05-05 19:02 | 44.57560 | 14.82614 | 35149 ft | 402 kts | 234° |
| 2026-05-05 19:03 | 44.55746 | 14.79645 | 35014 ft | 401 kts | 234° |
| 2026-05-05 19:03 | 44.53928 | 14.76671 | 35042 ft | 402 kts | 234° |
| 2026-05-05 19:03 | 44.50277 | 14.70711 | 35038 ft | 403 kts | 234° |
| 2026-05-05 19:04 | 44.46620 | 14.64753 | 35038 ft | 403 kts | 234° |
| 2026-05-05 19:04 | 44.42985 | 14.58851 | 35033 ft | 403 kts | 234° |
| 2026-05-05 19:05 | 44.39299 | 14.52880 | 35038 ft | 403 kts | 234° |
| 2026-05-05 19:05 | 44.35660 | 14.46985 | 35039 ft | 403 kts | 234° |
| 2026-05-05 19:06 | 44.31995 | 14.41057 | 35039 ft | 403 kts | 234° |
| 2026-05-05 19:06 | 44.28319 | 14.35138 | 35028 ft | 403 kts | 234° |
| 2026-05-05 19:07 | 44.25238 | 14.30184 | 35028 ft | 403 kts | 234° |
| 2026-05-05 19:07 | 44.20961 | 14.23326 | 35048 ft | 403 kts | 234° |
| 2026-05-05 19:08 | 44.17286 | 14.17443 | 35043 ft | 402 kts | 234° |
| 2026-05-05 19:08 | 44.13613 | 14.11574 | 35034 ft | 402 kts | 234° |
| 2026-05-05 19:09 | 44.09943 | 14.05714 | 35036 ft | 402 kts | 234° |
| 2026-05-05 19:09 | 44.06263 | 13.99865 | 35037 ft | 402 kts | 234° |
| 2026-05-05 19:10 | 44.02583 | 13.94026 | 35037 ft | 402 kts | 234° |
| 2026-05-05 19:10 | 43.98559 | 13.88580 | 35035 ft | 406 kts | 227° |
| 2026-05-05 19:11 | 43.94363 | 13.83343 | 35042 ft | 406 kts | 227° |
| 2026-05-05 19:11 | 43.90172 | 13.78111 | 35037 ft | 405 kts | 227° |
| 2026-05-05 19:12 | 43.86690 | 13.73784 | 35037 ft | 404 kts | 227° |
| 2026-05-05 19:12 | 43.82502 | 13.68592 | 35031 ft | 404 kts | 227° |
| 2026-05-05 19:13 | 43.77639 | 13.62567 | 35030 ft | 404 kts | 227° |
| 2026-05-05 19:13 | 43.73453 | 13.57400 | 35028 ft | 403 kts | 227° |
| 2026-05-05 19:14 | 43.69948 | 13.53080 | 35024 ft | 403 kts | 227° |
| 2026-05-05 19:14 | 43.65769 | 13.47932 | 35038 ft | 402 kts | 227° |
| 2026-05-05 19:15 | 43.61592 | 13.42805 | 34999 ft | 401 kts | 227° |
| 2026-05-05 19:15 | 43.57451 | 13.37728 | 35024 ft | 401 kts | 227° |
| 2026-05-05 19:16 | 43.53258 | 13.32585 | 35026 ft | 401 kts | 227° |
| 2026-05-05 19:16 | 43.49116 | 13.27519 | 35025 ft | 401 kts | 227° |
| 2026-05-05 19:17 | 43.44913 | 13.22391 | 34992 ft | 401 kts | 226° |
| 2026-05-05 19:17 | 43.40724 | 13.17290 | 34978 ft | 403 kts | 226° |
| 2026-05-05 19:18 | 43.36511 | 13.12172 | 35012 ft | 405 kts | 226° |
| 2026-05-05 19:18 | 43.32311 | 13.07082 | 34444 ft | 408 kts | 226° |
| 2026-05-05 19:19 | 43.30176 | 13.04494 | 33686 ft | 410 kts | 226° |
| 2026-05-05 19:19 | 43.28184 | 13.01714 | 32959 ft | 407 kts | 231° |
| 2026-05-05 19:19 | 43.26273 | 12.98854 | 32361 ft | 406 kts | 231° |
| 2026-05-05 19:19 | 43.24364 | 12.96017 | 31813 ft | 404 kts | 231° |
| 2026-05-05 19:20 | 43.22462 | 12.93205 | 31291 ft | 401 kts | 231° |
| 2026-05-05 19:20 | 43.20570 | 12.90414 | 30712 ft | 398 kts | 231° |
| 2026-05-05 19:20 | 43.18688 | 12.87639 | 30132 ft | 397 kts | 231° |
| 2026-05-05 19:20 | 43.16815 | 12.84874 | 29512 ft | 395 kts | 231° |
| 2026-05-05 19:21 | 43.14954 | 12.82124 | 28888 ft | 392 kts | 231° |
| 2026-05-05 19:21 | 43.13105 | 12.79396 | 28304 ft | 390 kts | 230° |
| 2026-05-05 19:21 | 43.11264 | 12.76680 | 27728 ft | 388 kts | 230° |
| 2026-05-05 19:21 | 43.09437 | 12.73990 | 27180 ft | 384 kts | 229° |
| 2026-05-05 19:22 | 43.07621 | 12.71321 | 26610 ft | 382 kts | 229° |
| 2026-05-05 19:22 | 43.05788 | 12.68632 | 26039 ft | 380 kts | 229° |
| 2026-05-05 19:22 | 43.04009 | 12.66027 | 25491 ft | 379 kts | 229° |
| 2026-05-05 19:22 | 43.02212 | 12.63395 | 24975 ft | 378 kts | 228° |
| 2026-05-05 19:23 | 43.00423 | 12.60773 | 24473 ft | 377 kts | 228° |
| 2026-05-05 19:23 | 42.98641 | 12.58159 | 23978 ft | 376 kts | 227° |
| 2026-05-05 19:23 | 42.96860 | 12.55551 | 23484 ft | 375 kts | 227° |
| 2026-05-05 19:23 | 42.95082 | 12.52957 | 22939 ft | 373 kts | 227° |
| 2026-05-05 19:24 | 42.93317 | 12.50383 | 22454 ft | 371 kts | 227° |
| 2026-05-05 19:24 | 42.91562 | 12.47823 | 21976 ft | 368 kts | 227° |
| 2026-05-05 19:24 | 42.89830 | 12.45312 | 21763 ft | 357 kts | 227° |
| 2026-05-05 19:24 | 42.88157 | 12.42882 | 21609 ft | 346 kts | 227° |
| 2026-05-05 19:25 | 42.86528 | 12.40513 | 21309 ft | 339 kts | 227° |
| 2026-05-05 19:25 | 42.84926 | 12.38179 | 20939 ft | 335 kts | 227° |
| 2026-05-05 19:25 | 42.83342 | 12.35874 | 20510 ft | 332 kts | 227° |
| 2026-05-05 19:25 | 42.81752 | 12.33611 | 20068 ft | 329 kts | 223° |
| 2026-05-05 19:26 | 42.79854 | 12.31920 | 19498 ft | 327 kts | 204° |
| 2026-05-05 19:26 | 42.77644 | 12.31172 | 18865 ft | 329 kts | 191° |
| 2026-05-05 19:26 | 42.75383 | 12.30731 | 18194 ft | 328 kts | 191° |
| 2026-05-05 19:26 | 42.73130 | 12.30307 | 17481 ft | 326 kts | 191° |
| 2026-05-05 19:27 | 42.70894 | 12.29892 | 16811 ft | 323 kts | 191° |
| 2026-05-05 19:27 | 42.68675 | 12.29478 | 16207 ft | 320 kts | 191° |
| 2026-05-05 19:27 | 42.66479 | 12.29062 | 15620 ft | 317 kts | 192° |
| 2026-05-05 19:27 | 42.64301 | 12.28645 | 15037 ft | 315 kts | 192° |
| 2026-05-05 19:28 | 42.62142 | 12.28229 | 14465 ft | 312 kts | 192° |
| 2026-05-05 19:28 | 42.59998 | 12.27817 | 13880 ft | 310 kts | 191° |
| 2026-05-05 19:28 | 42.57868 | 12.27410 | 13256 ft | 308 kts | 191° |
| 2026-05-05 19:28 | 42.55758 | 12.27005 | 12670 ft | 304 kts | 191° |
| 2026-05-05 19:29 | 42.53673 | 12.26605 | 12094 ft | 301 kts | 191° |
| 2026-05-05 19:29 | 42.51612 | 12.26211 | 11530 ft | 298 kts | 191° |
| 2026-05-05 19:29 | 42.49570 | 12.25820 | 10985 ft | 295 kts | 191° |
| 2026-05-05 19:29 | 42.47547 | 12.25432 | 10617 ft | 292 kts | 191° |
| 2026-05-05 19:30 | 42.45544 | 12.25048 | 10254 ft | 289 kts | 191° |
| 2026-05-05 19:30 | 42.43541 | 12.24661 | 9689 ft | 293 kts | 191° |
| 2026-05-05 19:30 | 42.41525 | 12.24272 | 9215 ft | 293 kts | 189° |
| 2026-05-05 19:30 | 42.39503 | 12.23884 | 8688 ft | 294 kts | 189° |
| 2026-05-05 19:31 | 42.37486 | 12.23497 | 8294 ft | 291 kts | 190° |
| 2026-05-05 19:31 | 42.35496 | 12.23119 | 7896 ft | 288 kts | 189° |
| 2026-05-05 19:31 | 42.33513 | 12.22745 | 7453 ft | 287 kts | 189° |
| 2026-05-05 19:31 | 42.31540 | 12.22373 | 7051 ft | 286 kts | 190° |
| 2026-05-05 19:32 | 42.29614 | 12.22006 | 6919 ft | 273 kts | 189° |
| 2026-05-05 19:32 | 42.27764 | 12.21652 | 6735 ft | 265 kts | 188° |
| 2026-05-05 19:32 | 42.25944 | 12.21305 | 6466 ft | 262 kts | 189° |
| 2026-05-05 19:32 | 42.24141 | 12.20961 | 6136 ft | 261 kts | 189° |
| 2026-05-05 19:33 | 42.22347 | 12.20619 | 5793 ft | 260 kts | 188° |
| 2026-05-05 19:33 | 42.20569 | 12.20278 | 5604 ft | 257 kts | 189° |
| 2026-05-05 19:33 | 42.18794 | 12.19943 | 5343 ft | 255 kts | 188° |
| 2026-05-05 19:33 | 42.17053 | 12.19595 | 5042 ft | 252 kts | 189° |
| 2026-05-05 19:34 | 42.15300 | 12.19363 | 4643 ft | 254 kts | 183° |
| 2026-05-05 19:34 | 42.13549 | 12.19285 | 4377 ft | 250 kts | 181° |
| 2026-05-05 19:34 | 42.11838 | 12.19244 | 4047 ft | 248 kts | 181° |
| 2026-05-05 19:35 | 42.08457 | 12.19185 | 4001 ft | 229 kts | 181° |
| 2026-05-05 19:35 | 42.06948 | 12.19155 | 4027 ft | 212 kts | 181° |
| 2026-05-05 19:35 | 42.05501 | 12.19123 | 4011 ft | 205 kts | 181° |
| 2026-05-05 19:35 | 42.04096 | 12.19090 | 4008 ft | 200 kts | 181° |
| 2026-05-05 19:36 | 42.02708 | 12.19057 | 4007 ft | 199 kts | 182° |
| 2026-05-05 19:36 | 42.01334 | 12.19176 | 3846 ft | 198 kts | 168° |
| 2026-05-05 19:36 | 42.00053 | 12.19658 | 3665 ft | 184 kts | 164° |
| 2026-05-05 19:36 | 41.98847 | 12.20164 | 3294 ft | 179 kts | 165° |
| 2026-05-05 19:37 | 41.97684 | 12.20654 | 2882 ft | 172 kts | 165° |
| 2026-05-05 19:37 | 41.96568 | 12.21123 | 2551 ft | 161 kts | 164° |
| 2026-05-05 19:37 | 41.95542 | 12.21555 | 2316 ft | 150 kts | 165° |
| 2026-05-05 19:37 | 41.94567 | 12.21965 | 2107 ft | 145 kts | 165° |
| 2026-05-05 19:38 | 41.93615 | 12.22364 | 1905 ft | 143 kts | 164° |
| 2026-05-05 19:38 | 41.92669 | 12.22762 | 1718 ft | 142 kts | 164° |
| 2026-05-05 19:38 | 41.91724 | 12.23158 | 1518 ft | 142 kts | 164° |
| 2026-05-05 19:38 | 41.90778 | 12.23555 | 1326 ft | 142 kts | 163° |
| 2026-05-05 19:39 | 41.89841 | 12.23949 | 1140 ft | 141 kts | 162° |
| 2026-05-05 19:39 | 41.88906 | 12.24341 | 944 ft | 142 kts | 163° |
| 2026-05-05 19:39 | 41.87969 | 12.24734 | 753 ft | 141 kts | 160° |
| 2026-05-05 19:39 | 41.87032 | 12.25127 | 571 ft | 141 kts | 160° |
| 2026-05-05 19:40 | 41.86104 | 12.25516 | 381 ft | 139 kts | 159° |
| 2026-05-05 19:40 | 41.85180 | 12.25906 | 209 ft | 139 kts | 160° |
| 2026-05-05 19:40 | 41.84259 | 12.26289 | 37 ft | 134 kts | 160° |
| 2026-05-05 19:40 | 41.83468 | 12.26632 | 13 ft | 100 kts | 162° |
| 2026-05-05 19:41 | 41.82984 | 12.26835 | 12 ft | 30 kts | 162° |
| 2026-05-05 19:41 | 41.82814 | 12.26875 | 14 ft | 24 kts | 176° |
| 2026-05-05 19:41 | 41.82650 | 12.26856 | 11 ft | 24 kts | 192° |
| 2026-05-05 19:41 | 41.82533 | 12.26819 | 11 ft | 15 kts | 193° |
| 2026-05-05 19:42 | 41.82430 | 12.26787 | 11 ft | 16 kts | 193° |
| 2026-05-05 19:42 | 41.82319 | 12.26793 | 11 ft | 16 kts | 164° |
| 2026-05-05 19:42 | 41.82203 | 12.26829 | 11 ft | 18 kts | 162° |
| 2026-05-05 19:42 | 41.82082 | 12.26881 | 11 ft | 19 kts | 162° |
| 2026-05-05 19:43 | 41.81955 | 12.26934 | 11 ft | 20 kts | 162° |
| 2026-05-05 19:43 | 41.81824 | 12.26989 | 12 ft | 20 kts | 162° |
| 2026-05-05 19:43 | 41.81688 | 12.27046 | 12 ft | 21 kts | 162° |
| 2026-05-05 19:43 | 41.81549 | 12.27106 | 12 ft | 21 kts | 163° |
| 2026-05-05 19:44 | 41.81404 | 12.27163 | 12 ft | 22 kts | 163° |
| 2026-05-05 19:44 | 41.81256 | 12.27226 | 12 ft | 23 kts | 162° |
| 2026-05-05 19:44 | 41.81105 | 12.27290 | 12 ft | 23 kts | 162° |
| 2026-05-05 19:44 | 41.80951 | 12.27349 | 13 ft | 22 kts | 173° |
| 2026-05-05 19:45 | 41.80808 | 12.27326 | 13 ft | 19 kts | 189° |
| 2026-05-05 19:45 | 41.80689 | 12.27280 | 13 ft | 17 kts | 218° |
| 2026-05-05 19:45 | 41.80637 | 12.27152 | 13 ft | 16 kts | 249° |
| 2026-05-05 19:45 | 41.80599 | 12.27016 | 14 ft | 15 kts | 249° |
| 2026-05-05 19:46 | 41.80566 | 12.26897 | 14 ft | 13 kts | 250° |
| 2026-05-05 19:46 | 41.80536 | 12.26788 | 14 ft | 12 kts | 250° |
| 2026-05-05 19:46 | 41.80507 | 12.26684 | 15 ft | 11 kts | 250° |
| 2026-05-05 19:46 | 41.80479 | 12.26577 | 15 ft | 13 kts | 249° |
| 2026-05-05 19:47 | 41.80444 | 12.26455 | 18 ft | 15 kts | 249° |
| 2026-05-05 19:47 | 41.80370 | 12.26368 | 14 ft | 15 kts | 184° |
| 2026-05-05 19:47 | 41.80268 | 12.26407 | 14 ft | 15 kts | 168° |
| 2026-05-05 19:47 | 41.80176 | 12.26381 | 14 ft | 13 kts | 205° |
| 2026-05-05 19:48 | 41.80099 | 12.26334 | 16 ft | 12 kts | 204° |
| 2026-05-05 19:48 | 41.80028 | 12.26290 | 14 ft | 11 kts | 205° |
| 2026-05-05 19:48 | 41.79962 | 12.26249 | 15 ft | 10 kts | 205° |
| 2026-05-05 19:48 | 41.79896 | 12.26209 | 14 ft | 10 kts | 204° |
| 2026-05-05 19:49 | 41.79830 | 12.26169 | 15 ft | 10 kts | 205° |
| 2026-05-05 19:49 | 41.79788 | 12.26140 | 15 ft | 10 kts | 217° |
| 2026-05-05 19:49 | 41.79783 | 12.26018 | 16 ft | 11 kts | 292° |
| 2026-05-05 19:49 | 41.79819 | 12.25918 | 15 ft | 12 kts | 297° |
| 2026-05-05 19:50 | 41.79805 | 12.25825 | 14 ft | 11 kts | 210° |
| 2026-05-05 19:50 | 41.79740 | 12.25783 | 15 ft | 9 kts | 205° |
| 2026-05-05 19:50 | 41.79687 | 12.25750 | 15 ft | 8 kts | 205° |
| 2026-05-05 19:50 | 41.79648 | 12.25752 | 14 ft | 4 kts | 138° |
| 2026-05-05 19:51 | 41.79634 | 12.25784 | 14 ft | 4 kts | 114° |
| 2026-05-05 19:51 | 41.79632 | 12.25790 | 14 ft | 1 kts | 114° |
| 2026-05-05 19:51 | 41.79631 | 12.25793 | 14 ft | 0 kts | 114° |